sensor_id;sensor_type;location;lat;lon;timestamp;P1;durP1;ratioP1;P2;durP2;ratioP2
76290;SDS011;65100;46.884;17.410;2024-02-04T00:00:29;9.63;;;4.50;;
76290;SDS011;65100;46.884;17.410;2024-02-04T00:02:54;9.30;;;5.03;;
76290;SDS011;65100;46.884;17.410;2024-02-04T00:05:20;10.02;;;4.85;;
76290;SDS011;65100;46.884;17.410;2024-02-04T00:07:46;8.53;;;4.33;;
76290;SDS011;65100;46.884;17.410;2024-02-04T00:10:11;9.23;;;5.32;;
76290;SDS011;65100;46.884;17.410;2024-02-04T00:12:37;8.03;;;4.30;;
76290;SDS011;65100;46.884;17.410;2024-02-04T00:15:04;8.73;;;4.20;;
76290;SDS011;65100;46.884;17.410;2024-02-04T00:17:30;9.55;;;5.18;;
76290;SDS011;65100;46.884;17.410;2024-02-04T00:19:58;9.40;;;4.88;;
76290;SDS011;65100;46.884;17.410;2024-02-04T00:22:27;9.87;;;4.33;;
76290;SDS011;65100;46.884;17.410;2024-02-04T00:24:53;9.45;;;4.95;;
76290;SDS011;65100;46.884;17.410;2024-02-04T00:27:18;9.85;;;5.15;;
76290;SDS011;65100;46.884;17.410;2024-02-04T00:29:44;9.77;;;4.77;;
76290;SDS011;65100;46.884;17.410;2024-02-04T00:32:09;10.63;;;5.53;;
76290;SDS011;65100;46.884;17.410;2024-02-04T00:34:35;9.88;;;5.35;;
76290;SDS011;65100;46.884;17.410;2024-02-04T00:37:00;9.43;;;4.67;;
76290;SDS011;65100;46.884;17.410;2024-02-04T00:39:26;9.57;;;4.60;;
76290;SDS011;65100;46.884;17.410;2024-02-04T00:41:51;9.70;;;4.73;;
76290;SDS011;65100;46.884;17.410;2024-02-04T00:44:17;9.45;;;5.22;;
76290;SDS011;65100;46.884;17.410;2024-02-04T00:46:43;9.20;;;4.77;;
76290;SDS011;65100;46.884;17.410;2024-02-04T00:49:09;9.10;;;4.72;;
76290;SDS011;65100;46.884;17.410;2024-02-04T00:51:34;10.98;;;5.95;;
76290;SDS011;65100;46.884;17.410;2024-02-04T00:54:00;12.07;;;6.50;;
76290;SDS011;65100;46.884;17.410;2024-02-04T00:56:25;14.10;;;6.77;;
76290;SDS011;65100;46.884;17.410;2024-02-04T00:58:50;10.90;;;5.60;;
76290;SDS011;65100;46.884;17.410;2024-02-04T01:01:16;12.45;;;6.47;;
76290;SDS011;65100;46.884;17.410;2024-02-04T01:03:42;11.20;;;6.03;;
76290;SDS011;65100;46.884;17.410;2024-02-04T01:06:07;10.40;;;5.85;;
76290;SDS011;65100;46.884;17.410;2024-02-04T01:08:33;10.83;;;5.57;;
76290;SDS011;65100;46.884;17.410;2024-02-04T01:10:59;10.85;;;6.40;;
76290;SDS011;65100;46.884;17.410;2024-02-04T01:13:25;11.00;;;5.60;;
76290;SDS011;65100;46.884;17.410;2024-02-04T01:15:53;10.68;;;5.78;;
76290;SDS011;65100;46.884;17.410;2024-02-04T01:18:18;10.30;;;5.40;;
76290;SDS011;65100;46.884;17.410;2024-02-04T01:20:44;9.47;;;5.00;;
76290;SDS011;65100;46.884;17.410;2024-02-04T01:23:09;11.20;;;5.73;;
76290;SDS011;65100;46.884;17.410;2024-02-04T01:25:35;9.93;;;5.32;;
76290;SDS011;65100;46.884;17.410;2024-02-04T01:28:00;11.03;;;5.73;;
76290;SDS011;65100;46.884;17.410;2024-02-04T01:30:25;9.37;;;4.70;;
76290;SDS011;65100;46.884;17.410;2024-02-04T01:32:51;11.33;;;5.53;;
76290;SDS011;65100;46.884;17.410;2024-02-04T01:35:16;12.47;;;5.90;;
76290;SDS011;65100;46.884;17.410;2024-02-04T01:37:42;12.20;;;6.10;;
76290;SDS011;65100;46.884;17.410;2024-02-04T01:40:34;13.77;;;6.32;;
76290;SDS011;65100;46.884;17.410;2024-02-04T01:42:59;13.97;;;7.13;;
76290;SDS011;65100;46.884;17.410;2024-02-04T01:45:25;13.95;;;6.93;;
76290;SDS011;65100;46.884;17.410;2024-02-04T01:47:50;15.13;;;7.13;;
76290;SDS011;65100;46.884;17.410;2024-02-04T01:50:16;14.53;;;7.23;;
76290;SDS011;65100;46.884;17.410;2024-02-04T01:52:42;12.40;;;6.75;;
76290;SDS011;65100;46.884;17.410;2024-02-04T01:55:09;13.27;;;6.50;;
76290;SDS011;65100;46.884;17.410;2024-02-04T01:57:34;12.47;;;6.57;;
76290;SDS011;65100;46.884;17.410;2024-02-04T02:00:00;12.57;;;6.40;;
76290;SDS011;65100;46.884;17.410;2024-02-04T02:02:25;11.93;;;7.30;;
76290;SDS011;65100;46.884;17.410;2024-02-04T02:04:51;12.90;;;6.60;;
76290;SDS011;65100;46.884;17.410;2024-02-04T02:07:17;13.00;;;7.37;;
76290;SDS011;65100;46.884;17.410;2024-02-04T02:09:45;13.55;;;7.68;;
76290;SDS011;65100;46.884;17.410;2024-02-04T02:12:16;13.80;;;7.03;;
76290;SDS011;65100;46.884;17.410;2024-02-04T02:14:46;13.93;;;6.73;;
76290;SDS011;65100;46.884;17.410;2024-02-04T02:17:15;13.48;;;7.40;;
76290;SDS011;65100;46.884;17.410;2024-02-04T02:19:49;15.10;;;8.27;;
76290;SDS011;65100;46.884;17.410;2024-02-04T02:24:57;13.77;;;7.45;;
76290;SDS011;65100;46.884;17.410;2024-02-04T02:27:25;14.87;;;7.57;;
76290;SDS011;65100;46.884;17.410;2024-02-04T02:29:50;12.30;;;6.43;;
76290;SDS011;65100;46.884;17.410;2024-02-04T02:32:16;12.77;;;6.10;;
76290;SDS011;65100;46.884;17.410;2024-02-04T02:34:42;13.63;;;6.60;;
76290;SDS011;65100;46.884;17.410;2024-02-04T02:39:59;14.63;;;5.80;;
76290;SDS011;65100;46.884;17.410;2024-02-04T02:42:25;12.80;;;6.35;;
76290;SDS011;65100;46.884;17.410;2024-02-04T02:44:52;12.35;;;7.03;;
76290;SDS011;65100;46.884;17.410;2024-02-04T02:47:20;12.68;;;6.72;;
76290;SDS011;65100;46.884;17.410;2024-02-04T02:49:46;13.73;;;7.43;;
76290;SDS011;65100;46.884;17.410;2024-02-04T02:52:11;14.37;;;6.70;;
76290;SDS011;65100;46.884;17.410;2024-02-04T02:54:37;13.67;;;6.87;;
76290;SDS011;65100;46.884;17.410;2024-02-04T02:57:02;13.60;;;7.57;;
76290;SDS011;65100;46.884;17.410;2024-02-04T02:59:28;13.98;;;6.60;;
76290;SDS011;65100;46.884;17.410;2024-02-04T03:01:53;14.30;;;7.33;;
76290;SDS011;65100;46.884;17.410;2024-02-04T03:04:18;12.97;;;6.80;;
76290;SDS011;65100;46.884;17.410;2024-02-04T03:06:44;15.07;;;7.43;;
76290;SDS011;65100;46.884;17.410;2024-02-04T03:09:09;13.82;;;6.72;;
76290;SDS011;65100;46.884;17.410;2024-02-04T03:11:35;13.00;;;6.73;;
76290;SDS011;65100;46.884;17.410;2024-02-04T03:14:02;16.42;;;8.00;;
76290;SDS011;65100;46.884;17.410;2024-02-04T03:16:28;14.73;;;7.87;;
76290;SDS011;65100;46.884;17.410;2024-02-04T03:18:53;13.48;;;7.50;;
76290;SDS011;65100;46.884;17.410;2024-02-04T03:21:19;14.07;;;7.33;;
76290;SDS011;65100;46.884;17.410;2024-02-04T03:23:44;13.63;;;6.80;;
76290;SDS011;65100;46.884;17.410;2024-02-04T03:26:10;15.80;;;7.32;;
76290;SDS011;65100;46.884;17.410;2024-02-04T03:28:36;15.63;;;8.00;;
76290;SDS011;65100;46.884;17.410;2024-02-04T03:31:01;16.27;;;8.13;;
76290;SDS011;65100;46.884;17.410;2024-02-04T03:33:27;18.63;;;9.23;;
76290;SDS011;65100;46.884;17.410;2024-02-04T03:35:53;16.80;;;7.53;;
76290;SDS011;65100;46.884;17.410;2024-02-04T03:38:18;18.63;;;9.17;;
76290;SDS011;65100;46.884;17.410;2024-02-04T03:40:44;14.63;;;7.60;;
76290;SDS011;65100;46.884;17.410;2024-02-04T03:43:09;14.80;;;7.95;;
76290;SDS011;65100;46.884;17.410;2024-02-04T03:45:35;14.93;;;8.03;;
76290;SDS011;65100;46.884;17.410;2024-02-04T03:48:01;17.88;;;8.95;;
76290;SDS011;65100;46.884;17.410;2024-02-04T03:50:26;16.60;;;9.00;;
76290;SDS011;65100;46.884;17.410;2024-02-04T03:52:52;16.70;;;7.88;;
76290;SDS011;65100;46.884;17.410;2024-02-04T03:55:18;17.17;;;8.40;;
76290;SDS011;65100;46.884;17.410;2024-02-04T03:57:44;19.45;;;8.55;;
76290;SDS011;65100;46.884;17.410;2024-02-04T04:00:09;18.83;;;9.47;;
76290;SDS011;65100;46.884;17.410;2024-02-04T04:02:35;16.63;;;8.68;;
76290;SDS011;65100;46.884;17.410;2024-02-04T04:05:00;16.27;;;8.90;;
76290;SDS011;65100;46.884;17.410;2024-02-04T04:07:26;15.88;;;8.02;;
76290;SDS011;65100;46.884;17.410;2024-02-04T04:09:51;14.60;;;7.27;;
76290;SDS011;65100;46.884;17.410;2024-02-04T04:12:17;15.20;;;8.17;;
76290;SDS011;65100;46.884;17.410;2024-02-04T04:14:42;16.20;;;7.90;;
76290;SDS011;65100;46.884;17.410;2024-02-04T04:17:07;14.77;;;8.27;;
76290;SDS011;65100;46.884;17.410;2024-02-04T04:19:33;15.67;;;7.80;;
76290;SDS011;65100;46.884;17.410;2024-02-04T04:22:01;16.98;;;8.20;;
76290;SDS011;65100;46.884;17.410;2024-02-04T04:24:27;17.73;;;8.30;;
76290;SDS011;65100;46.884;17.410;2024-02-04T04:26:52;14.50;;;7.97;;
76290;SDS011;65100;46.884;17.410;2024-02-04T04:29:17;15.13;;;7.80;;
76290;SDS011;65100;46.884;17.410;2024-02-04T04:31:43;16.23;;;9.47;;
76290;SDS011;65100;46.884;17.410;2024-02-04T04:34:08;16.10;;;8.40;;
76290;SDS011;65100;46.884;17.410;2024-02-04T04:36:34;14.20;;;7.30;;
76290;SDS011;65100;46.884;17.410;2024-02-04T04:39:00;15.60;;;8.30;;
76290;SDS011;65100;46.884;17.410;2024-02-04T04:41:25;16.08;;;8.48;;
76290;SDS011;65100;46.884;17.410;2024-02-04T04:43:50;16.23;;;8.47;;
76290;SDS011;65100;46.884;17.410;2024-02-04T04:46:16;16.40;;;8.97;;
76290;SDS011;65100;46.884;17.410;2024-02-04T04:48:41;18.07;;;9.60;;
76290;SDS011;65100;46.884;17.410;2024-02-04T04:51:10;17.17;;;8.68;;
76290;SDS011;65100;46.884;17.410;2024-02-04T04:53:37;15.53;;;8.00;;
76290;SDS011;65100;46.884;17.410;2024-02-04T04:56:03;17.10;;;9.10;;
76290;SDS011;65100;46.884;17.410;2024-02-04T04:58:29;17.50;;;9.10;;
76290;SDS011;65100;46.884;17.410;2024-02-04T05:00:54;16.67;;;8.40;;
76290;SDS011;65100;46.884;17.410;2024-02-04T05:03:20;17.60;;;8.67;;
76290;SDS011;65100;46.884;17.410;2024-02-04T05:05:45;16.80;;;9.30;;
76290;SDS011;65100;46.884;17.410;2024-02-04T05:08:11;17.67;;;9.30;;
76290;SDS011;65100;46.884;17.410;2024-02-04T05:10:38;15.35;;;8.38;;
76290;SDS011;65100;46.884;17.410;2024-02-04T05:13:03;17.53;;;9.43;;
76290;SDS011;65100;46.884;17.410;2024-02-04T05:15:28;14.77;;;8.07;;
76290;SDS011;65100;46.884;17.410;2024-02-04T05:17:54;16.05;;;8.65;;
76290;SDS011;65100;46.884;17.410;2024-02-04T05:20:20;17.42;;;9.02;;
76290;SDS011;65100;46.884;17.410;2024-02-04T05:22:46;16.43;;;7.63;;
76290;SDS011;65100;46.884;17.410;2024-02-04T05:25:11;18.20;;;9.20;;
76290;SDS011;65100;46.884;17.410;2024-02-04T05:27:37;15.85;;;8.80;;
76290;SDS011;65100;46.884;17.410;2024-02-04T05:30:02;17.77;;;9.50;;
76290;SDS011;65100;46.884;17.410;2024-02-04T05:32:28;19.95;;;9.60;;
76290;SDS011;65100;46.884;17.410;2024-02-04T05:34:54;20.83;;;11.43;;
76290;SDS011;65100;46.884;17.410;2024-02-04T05:37:19;21.87;;;10.87;;
76290;SDS011;65100;46.884;17.410;2024-02-04T05:39:45;19.08;;;9.45;;
76290;SDS011;65100;46.884;17.410;2024-02-04T05:42:10;20.17;;;10.73;;
76290;SDS011;65100;46.884;17.410;2024-02-04T05:44:36;20.73;;;10.77;;
76290;SDS011;65100;46.884;17.410;2024-02-04T05:47:01;20.90;;;12.10;;
76290;SDS011;65100;46.884;17.410;2024-02-04T05:49:26;21.35;;;11.52;;
76290;SDS011;65100;46.884;17.410;2024-02-04T05:51:52;22.63;;;11.53;;
76290;SDS011;65100;46.884;17.410;2024-02-04T05:54:17;19.43;;;10.07;;
76290;SDS011;65100;46.884;17.410;2024-02-04T05:56:43;21.73;;;11.37;;
76290;SDS011;65100;46.884;17.410;2024-02-04T05:59:09;22.17;;;10.90;;
76290;SDS011;65100;46.884;17.410;2024-02-04T06:01:34;22.27;;;11.73;;
76290;SDS011;65100;46.884;17.410;2024-02-04T06:04:00;20.40;;;10.60;;
76290;SDS011;65100;46.884;17.410;2024-02-04T06:06:25;20.83;;;11.40;;
76290;SDS011;65100;46.884;17.410;2024-02-04T06:08:51;22.97;;;12.10;;
76290;SDS011;65100;46.884;17.410;2024-02-04T06:11:17;19.75;;;10.48;;
76290;SDS011;65100;46.884;17.410;2024-02-04T06:13:43;20.20;;;10.53;;
76290;SDS011;65100;46.884;17.410;2024-02-04T06:16:09;17.60;;;9.30;;
76290;SDS011;65100;46.884;17.410;2024-02-04T06:18:37;16.83;;;9.68;;
76290;SDS011;65100;46.884;17.410;2024-02-04T06:21:05;17.65;;;9.18;;
76290;SDS011;65100;46.884;17.410;2024-02-04T06:23:31;18.40;;;10.23;;
76290;SDS011;65100;46.884;17.410;2024-02-04T06:25:57;17.10;;;9.50;;
76290;SDS011;65100;46.884;17.410;2024-02-04T06:28:22;18.45;;;10.05;;
76290;SDS011;65100;46.884;17.410;2024-02-04T06:30:48;18.10;;;9.10;;
76290;SDS011;65100;46.884;17.410;2024-02-04T06:33:14;19.70;;;9.68;;
76290;SDS011;65100;46.884;17.410;2024-02-04T06:35:40;21.17;;;11.20;;
76290;SDS011;65100;46.884;17.410;2024-02-04T06:38:05;22.95;;;12.05;;
76290;SDS011;65100;46.884;17.410;2024-02-04T06:40:31;21.27;;;10.67;;
76290;SDS011;65100;46.884;17.410;2024-02-04T06:42:56;21.30;;;10.63;;
76290;SDS011;65100;46.884;17.410;2024-02-04T06:45:21;23.50;;;11.70;;
76290;SDS011;65100;46.884;17.410;2024-02-04T06:47:47;25.05;;;12.48;;
76290;SDS011;65100;46.884;17.410;2024-02-04T06:50:12;20.07;;;10.40;;
76290;SDS011;65100;46.884;17.410;2024-02-04T06:52:42;21.73;;;11.63;;
76290;SDS011;65100;46.884;17.410;2024-02-04T06:55:08;21.63;;;11.85;;
76290;SDS011;65100;46.884;17.410;2024-02-04T06:57:34;23.10;;;12.57;;
76290;SDS011;65100;46.884;17.410;2024-02-04T07:00:00;24.88;;;13.25;;
76290;SDS011;65100;46.884;17.410;2024-02-04T07:02:25;21.83;;;11.57;;
76290;SDS011;65100;46.884;17.410;2024-02-04T07:04:51;23.27;;;12.73;;
76290;SDS011;65100;46.884;17.410;2024-02-04T07:07:16;22.37;;;12.23;;
76290;SDS011;65100;46.884;17.410;2024-02-04T07:09:41;23.15;;;11.88;;
76290;SDS011;65100;46.884;17.410;2024-02-04T07:12:07;23.63;;;12.33;;
76290;SDS011;65100;46.884;17.410;2024-02-04T07:14:32;20.97;;;10.73;;
76290;SDS011;65100;46.884;17.410;2024-02-04T07:16:58;19.47;;;11.30;;
76290;SDS011;65100;46.884;17.410;2024-02-04T07:19:23;24.70;;;12.83;;
76290;SDS011;65100;46.884;17.410;2024-02-04T07:21:49;23.97;;;13.30;;
76290;SDS011;65100;46.884;17.410;2024-02-04T07:24:14;24.83;;;12.83;;
76290;SDS011;65100;46.884;17.410;2024-02-04T07:26:39;26.10;;;14.63;;
76290;SDS011;65100;46.884;17.410;2024-02-04T07:29:05;27.73;;;14.30;;
76290;SDS011;65100;46.884;17.410;2024-02-04T07:31:30;23.73;;;12.93;;
76290;SDS011;65100;46.884;17.410;2024-02-04T07:33:56;22.77;;;12.17;;
76290;SDS011;65100;46.884;17.410;2024-02-04T07:36:21;36.00;;;21.73;;
76290;SDS011;65100;46.884;17.410;2024-02-04T07:41:55;25.73;;;13.23;;
76290;SDS011;65100;46.884;17.410;2024-02-04T07:44:24;27.02;;;15.07;;
76290;SDS011;65100;46.884;17.410;2024-02-04T07:46:50;26.73;;;14.73;;
76290;SDS011;65100;46.884;17.410;2024-02-04T07:49:16;31.03;;;16.93;;
76290;SDS011;65100;46.884;17.410;2024-02-04T07:51:41;28.87;;;16.53;;
76290;SDS011;65100;46.884;17.410;2024-02-04T07:54:07;27.77;;;15.60;;
76290;SDS011;65100;46.884;17.410;2024-02-04T07:56:32;25.75;;;14.20;;
76290;SDS011;65100;46.884;17.410;2024-02-04T07:58:57;23.17;;;12.00;;
76290;SDS011;65100;46.884;17.410;2024-02-04T08:01:23;24.13;;;12.43;;
76290;SDS011;65100;46.884;17.410;2024-02-04T08:03:49;22.80;;;13.05;;
76290;SDS011;65100;46.884;17.410;2024-02-04T08:06:14;26.47;;;13.60;;
76290;SDS011;65100;46.884;17.410;2024-02-04T08:08:40;24.50;;;13.37;;
76290;SDS011;65100;46.884;17.410;2024-02-04T08:11:07;23.13;;;13.15;;
76290;SDS011;65100;46.884;17.410;2024-02-04T08:13:32;24.27;;;13.80;;
76290;SDS011;65100;46.884;17.410;2024-02-04T08:15:58;24.08;;;12.85;;
76290;SDS011;65100;46.884;17.410;2024-02-04T08:18:23;28.43;;;13.33;;
76290;SDS011;65100;46.884;17.410;2024-02-04T08:20:48;23.20;;;12.53;;
76290;SDS011;65100;46.884;17.410;2024-02-04T08:23:14;25.40;;;12.70;;
76290;SDS011;65100;46.884;17.410;2024-02-04T08:25:40;25.08;;;13.07;;
76290;SDS011;65100;46.884;17.410;2024-02-04T08:28:05;24.80;;;13.07;;
76290;SDS011;65100;46.884;17.410;2024-02-04T08:30:31;22.63;;;12.53;;
76290;SDS011;65100;46.884;17.410;2024-02-04T08:32:56;22.90;;;13.03;;
76290;SDS011;65100;46.884;17.410;2024-02-04T08:35:22;25.13;;;13.03;;
76290;SDS011;65100;46.884;17.410;2024-02-04T08:37:47;23.97;;;13.50;;
76290;SDS011;65100;46.884;17.410;2024-02-04T08:40:13;21.48;;;11.43;;
76290;SDS011;65100;46.884;17.410;2024-02-04T08:42:38;20.90;;;11.27;;
76290;SDS011;65100;46.884;17.410;2024-02-04T08:45:04;20.47;;;11.33;;
76290;SDS011;65100;46.884;17.410;2024-02-04T08:47:30;20.45;;;10.98;;
76290;SDS011;65100;46.884;17.410;2024-02-04T08:49:55;19.90;;;10.80;;
76290;SDS011;65100;46.884;17.410;2024-02-04T08:52:22;18.02;;;10.25;;
76290;SDS011;65100;46.884;17.410;2024-02-04T08:54:47;22.05;;;11.80;;
76290;SDS011;65100;46.884;17.410;2024-02-04T08:57:13;20.90;;;11.93;;
76290;SDS011;65100;46.884;17.410;2024-02-04T08:59:39;21.70;;;11.82;;
76290;SDS011;65100;46.884;17.410;2024-02-04T09:02:05;21.43;;;11.53;;
76290;SDS011;65100;46.884;17.410;2024-02-04T09:04:30;19.83;;;11.70;;
76290;SDS011;65100;46.884;17.410;2024-02-04T09:06:56;22.17;;;11.67;;
76290;SDS011;65100;46.884;17.410;2024-02-04T09:09:21;22.33;;;12.03;;
76290;SDS011;65100;46.884;17.410;2024-02-04T09:11:47;23.23;;;12.45;;
76290;SDS011;65100;46.884;17.410;2024-02-04T09:14:12;21.27;;;11.70;;
76290;SDS011;65100;46.884;17.410;2024-02-04T09:16:38;23.43;;;12.03;;
76290;SDS011;65100;46.884;17.410;2024-02-04T09:19:04;24.77;;;12.85;;
76290;SDS011;65100;46.884;17.410;2024-02-04T09:21:29;22.17;;;12.55;;
76290;SDS011;65100;46.884;17.410;2024-02-04T09:23:55;20.80;;;12.57;;
76290;SDS011;65100;46.884;17.410;2024-02-04T09:26:22;20.77;;;12.10;;
76290;SDS011;65100;46.884;17.410;2024-02-04T09:28:48;20.87;;;11.80;;
76290;SDS011;65100;46.884;17.410;2024-02-04T09:31:13;21.23;;;11.20;;
76290;SDS011;65100;46.884;17.410;2024-02-04T09:33:39;32.97;;;15.17;;
76290;SDS011;65100;46.884;17.410;2024-02-04T09:36:05;23.38;;;12.75;;
76290;SDS011;65100;46.884;17.410;2024-02-04T09:38:31;31.63;;;15.85;;
76290;SDS011;65100;46.884;17.410;2024-02-04T09:40:56;23.63;;;12.53;;
76290;SDS011;65100;46.884;17.410;2024-02-04T09:43:22;20.17;;;11.00;;
76290;SDS011;65100;46.884;17.410;2024-02-04T09:45:48;19.33;;;10.35;;
76290;SDS011;65100;46.884;17.410;2024-02-04T09:48:14;18.20;;;9.70;;
76290;SDS011;65100;46.884;17.410;2024-02-04T09:50:43;18.48;;;9.48;;
76290;SDS011;65100;46.884;17.410;2024-02-04T09:53:10;18.23;;;9.47;;
76290;SDS011;65100;46.884;17.410;2024-02-04T09:55:39;15.32;;;8.60;;
76290;SDS011;65100;46.884;17.410;2024-02-04T09:58:06;16.95;;;9.32;;
76290;SDS011;65100;46.884;17.410;2024-02-04T10:00:32;15.73;;;8.07;;
76290;SDS011;65100;46.884;17.410;2024-02-04T10:02:58;15.07;;;7.95;;
76290;SDS011;65100;46.884;17.410;2024-02-04T10:05:24;15.20;;;8.15;;
76290;SDS011;65100;46.884;17.410;2024-02-04T10:07:50;15.63;;;7.87;;
76290;SDS011;65100;46.884;17.410;2024-02-04T10:10:15;15.73;;;8.93;;
76290;SDS011;65100;46.884;17.410;2024-02-04T10:12:41;14.80;;;8.60;;
76290;SDS011;65100;46.884;17.410;2024-02-04T10:15:08;14.90;;;8.23;;
76290;SDS011;65100;46.884;17.410;2024-02-04T10:17:34;15.07;;;7.47;;
76290;SDS011;65100;46.884;17.410;2024-02-04T10:20:00;14.23;;;7.63;;
76290;SDS011;65100;46.884;17.410;2024-02-04T10:22:26;14.10;;;7.57;;
76290;SDS011;65100;46.884;17.410;2024-02-04T10:24:53;14.90;;;7.60;;
76290;SDS011;65100;46.884;17.410;2024-02-04T10:27:19;14.27;;;7.77;;
76290;SDS011;65100;46.884;17.410;2024-02-04T10:29:45;13.95;;;7.53;;
76290;SDS011;65100;46.884;17.410;2024-02-04T10:32:10;13.83;;;7.53;;
76290;SDS011;65100;46.884;17.410;2024-02-04T10:34:37;14.95;;;8.05;;
76290;SDS011;65100;46.884;17.410;2024-02-04T10:37:03;12.07;;;6.57;;
76290;SDS011;65100;46.884;17.410;2024-02-04T10:39:29;13.18;;;7.35;;
76290;SDS011;65100;46.884;17.410;2024-02-04T10:41:54;12.67;;;6.93;;
76290;SDS011;65100;46.884;17.410;2024-02-04T10:44:21;12.85;;;7.05;;
76290;SDS011;65100;46.884;17.410;2024-02-04T10:46:48;13.80;;;7.10;;
76290;SDS011;65100;46.884;17.410;2024-02-04T10:49:15;12.45;;;6.68;;
76290;SDS011;65100;46.884;17.410;2024-02-04T10:51:42;14.00;;;7.00;;
76290;SDS011;65100;46.884;17.410;2024-02-04T10:54:11;12.90;;;7.38;;
76290;SDS011;65100;46.884;17.410;2024-02-04T10:56:42;13.55;;;7.03;;
76290;SDS011;65100;46.884;17.410;2024-02-04T10:59:14;13.73;;;6.70;;
76290;SDS011;65100;46.884;17.410;2024-02-04T11:01:43;13.18;;;6.85;;
76290;SDS011;65100;46.884;17.410;2024-02-04T11:04:09;11.43;;;6.63;;
76290;SDS011;65100;46.884;17.410;2024-02-04T11:06:38;12.40;;;6.30;;
76290;SDS011;65100;46.884;17.410;2024-02-04T11:09:06;10.87;;;5.70;;
76290;SDS011;65100;46.884;17.410;2024-02-04T11:11:34;12.45;;;6.32;;
76290;SDS011;65100;46.884;17.410;2024-02-04T11:14:04;11.88;;;6.40;;
76290;SDS011;65100;46.884;17.410;2024-02-04T11:22:22;11.53;;;6.10;;
76290;SDS011;65100;46.884;17.410;2024-02-04T11:25:15;12.57;;;6.15;;
76290;SDS011;65100;46.884;17.410;2024-02-04T11:27:43;11.73;;;6.18;;
76290;SDS011;65100;46.884;17.410;2024-02-04T11:30:09;13.48;;;6.30;;
76290;SDS011;65100;46.884;17.410;2024-02-04T11:32:35;11.10;;;6.13;;
76290;SDS011;65100;46.884;17.410;2024-02-04T11:35:01;10.55;;;5.55;;
76290;SDS011;65100;46.884;17.410;2024-02-04T11:37:28;12.85;;;7.05;;
76290;SDS011;65100;46.884;17.410;2024-02-04T11:39:54;15.75;;;8.38;;
76290;SDS011;65100;46.884;17.410;2024-02-04T11:42:25;15.60;;;8.30;;
76290;SDS011;65100;46.884;17.410;2024-02-04T11:45:06;17.08;;;8.40;;
76290;SDS011;65100;46.884;17.410;2024-02-04T11:47:36;14.38;;;7.93;;
76290;SDS011;65100;46.884;17.410;2024-02-04T11:50:03;14.27;;;8.00;;
76290;SDS011;65100;46.884;17.410;2024-02-04T11:52:28;15.27;;;7.82;;
76290;SDS011;65100;46.884;17.410;2024-02-04T11:54:54;14.80;;;7.63;;
76290;SDS011;65100;46.884;17.410;2024-02-04T11:57:20;15.23;;;7.95;;
76290;SDS011;65100;46.884;17.410;2024-02-04T11:59:46;15.57;;;7.90;;
76290;SDS011;65100;46.884;17.410;2024-02-04T12:02:12;15.07;;;8.00;;
76290;SDS011;65100;46.884;17.410;2024-02-04T12:04:40;14.05;;;6.90;;
76290;SDS011;65100;46.884;17.410;2024-02-04T12:07:06;14.73;;;7.68;;
76290;SDS011;65100;46.884;17.410;2024-02-04T12:09:33;13.23;;;7.45;;
76290;SDS011;65100;46.884;17.410;2024-02-04T12:12:00;12.50;;;6.20;;
76290;SDS011;65100;46.884;17.410;2024-02-04T12:14:26;12.73;;;5.80;;
76290;SDS011;65100;46.884;17.410;2024-02-04T12:16:52;13.18;;;6.57;;
76290;SDS011;65100;46.884;17.410;2024-02-04T12:19:17;12.47;;;6.20;;
76290;SDS011;65100;46.884;17.410;2024-02-04T12:21:43;12.00;;;6.20;;
76290;SDS011;65100;46.884;17.410;2024-02-04T12:24:08;12.30;;;5.90;;
76290;SDS011;65100;46.884;17.410;2024-02-04T12:26:34;11.95;;;6.47;;
76290;SDS011;65100;46.884;17.410;2024-02-04T12:29:00;13.05;;;6.88;;
76290;SDS011;65100;46.884;17.410;2024-02-04T12:31:26;13.80;;;7.17;;
76290;SDS011;65100;46.884;17.410;2024-02-04T12:33:56;13.70;;;6.97;;
76290;SDS011;65100;46.884;17.410;2024-02-04T12:36:31;15.95;;;7.97;;
76290;SDS011;65100;46.884;17.410;2024-02-04T12:38:58;14.07;;;7.60;;
76290;SDS011;65100;46.884;17.410;2024-02-04T12:41:32;15.18;;;7.30;;
76290;SDS011;65100;46.884;17.410;2024-02-04T12:43:58;14.80;;;8.13;;
76290;SDS011;65100;46.884;17.410;2024-02-04T12:46:25;15.68;;;8.32;;
76290;SDS011;65100;46.884;17.410;2024-02-04T12:48:55;15.07;;;7.82;;
76290;SDS011;65100;46.884;17.410;2024-02-04T12:51:25;14.90;;;7.87;;
76290;SDS011;65100;46.884;17.410;2024-02-04T12:54:09;15.98;;;8.30;;
76290;SDS011;65100;46.884;17.410;2024-02-04T12:56:54;15.68;;;7.95;;
76290;SDS011;65100;46.884;17.410;2024-02-04T12:59:29;15.90;;;7.82;;
76290;SDS011;65100;46.884;17.410;2024-02-04T13:02:00;14.85;;;7.95;;
76290;SDS011;65100;46.884;17.410;2024-02-04T13:04:36;14.17;;;7.63;;
76290;SDS011;65100;46.884;17.410;2024-02-04T13:07:09;14.05;;;7.18;;
76290;SDS011;65100;46.884;17.410;2024-02-04T13:09:56;13.27;;;6.85;;
76290;SDS011;65100;46.884;17.410;2024-02-04T13:12:23;13.50;;;7.43;;
76290;SDS011;65100;46.884;17.410;2024-02-04T13:14:51;14.43;;;7.17;;
76290;SDS011;65100;46.884;17.410;2024-02-04T13:17:16;14.13;;;7.20;;
76290;SDS011;65100;46.884;17.410;2024-02-04T13:19:42;14.63;;;7.43;;
76290;SDS011;65100;46.884;17.410;2024-02-04T13:22:09;13.30;;;7.03;;
76290;SDS011;65100;46.884;17.410;2024-02-04T13:24:35;14.40;;;7.50;;
76290;SDS011;65100;46.884;17.410;2024-02-04T13:27:00;14.98;;;7.40;;
76290;SDS011;65100;46.884;17.410;2024-02-04T13:29:29;14.77;;;7.97;;
76290;SDS011;65100;46.884;17.410;2024-02-04T13:31:55;15.38;;;7.55;;
76290;SDS011;65100;46.884;17.410;2024-02-04T13:34:20;13.13;;;7.32;;
76290;SDS011;65100;46.884;17.410;2024-02-04T13:36:46;13.40;;;7.30;;
76290;SDS011;65100;46.884;17.410;2024-02-04T13:39:12;14.70;;;7.90;;
76290;SDS011;65100;46.884;17.410;2024-02-04T13:41:38;13.97;;;7.70;;
76290;SDS011;65100;46.884;17.410;2024-02-04T13:44:04;14.90;;;8.02;;
76290;SDS011;65100;46.884;17.410;2024-02-04T13:46:30;15.52;;;7.85;;
76290;SDS011;65100;46.884;17.410;2024-02-04T13:48:55;13.70;;;7.63;;
76290;SDS011;65100;46.884;17.410;2024-02-04T13:51:21;15.43;;;7.53;;
76290;SDS011;65100;46.884;17.410;2024-02-04T13:53:46;14.70;;;8.00;;
76290;SDS011;65100;46.884;17.410;2024-02-04T13:56:12;13.73;;;7.50;;
76290;SDS011;65100;46.884;17.410;2024-02-04T13:58:37;12.77;;;7.00;;
76290;SDS011;65100;46.884;17.410;2024-02-04T14:01:03;13.83;;;7.07;;
76290;SDS011;65100;46.884;17.410;2024-02-04T14:03:28;12.90;;;7.20;;
76290;SDS011;65100;46.884;17.410;2024-02-04T14:05:54;13.47;;;6.70;;
76290;SDS011;65100;46.884;17.410;2024-02-04T14:08:20;12.38;;;6.80;;
76290;SDS011;65100;46.884;17.410;2024-02-04T14:11:11;12.10;;;6.53;;
76290;SDS011;65100;46.884;17.410;2024-02-04T14:13:37;12.63;;;6.60;;
76290;SDS011;65100;46.884;17.410;2024-02-04T14:16:02;12.57;;;7.25;;
76290;SDS011;65100;46.884;17.410;2024-02-04T14:18:28;12.33;;;7.13;;
76290;SDS011;65100;46.884;17.410;2024-02-04T14:20:54;15.07;;;7.78;;
76290;SDS011;65100;46.884;17.410;2024-02-04T14:23:19;14.20;;;8.27;;
76290;SDS011;65100;46.884;17.410;2024-02-04T14:25:44;13.83;;;7.90;;
76290;SDS011;65100;46.884;17.410;2024-02-04T14:28:11;15.02;;;8.38;;